Time;durP1;ratioP1;P1;durP2;ratioP2;P2;SDS_P1;SDS_P2;PMS_P1;PMS_P2;Temp;Humidity;BMP_temperature;BMP_pressure;BME280_temperature;BME280_humidity;BME280_pressure;Samples;Min_cycle;Max_cycle;Signal;HPM_P1;HPM_P2
2022/09/11 00:06:55;;;;;;;2.83;1.50;;;;;;;14.78;43.94;100392.78;31465170;28;20049;-78
2022/09/11 00:21:57;;;;;;;2.87;1.67;;;;;;;14.61;45.06;100370.28;31462935;28;20052;-79
2022/09/11 00:36:59;;;;;;;4.67;1.80;;;;;;;14.39;46.32;100329.19;31475107;28;20152;-77
2022/09/11 00:52:20;;;;;;;3.20;1.80;;;;;;;14.30;47.61;100337.28;31488985;28;20052;-77
2022/09/11 01:07:24;;;;;;;6.23;2.00;;;;;;;14.09;48.62;100344.16;31483671;28;20063;-77
2022/09/11 01:22:54;;;;;;;2.13;1.40;;;;;;;14.04;49.87;100319.38;31481523;28;20055;-79
2022/09/11 01:38:02;;;;;;;3.60;1.17;;;;;;;13.92;50.51;100305.28;31474517;28;20146;-77
2022/09/11 01:53:05;;;;;;;5.47;1.17;;;;;;;13.88;51.56;100263.69;31477001;28;20080;-79
2022/09/11 02:08:19;;;;;;;2.87;1.30;;;;;;;13.84;52.43;100252.13;31480843;28;20494;-77
2022/09/11 02:23:21;;;;;;;5.17;1.73;;;;;;;13.76;52.26;100237.16;31455382;28;20041;-77
2022/09/11 02:38:38;;;;;;;1.80;1.40;;;;;;;13.70;53.10;100236.16;31479058;28;20414;-78
2022/09/11 02:54:04;;;;;;;8.20;1.53;;;;;;;13.65;53.46;100212.19;31462884;28;20059;-79
2022/09/11 03:09:06;;;;;;;;;;;;;;;13.52;54.76;100211.41;31462897;28;20426;-78
2022/09/11 03:24:08;;;;;;;3.40;1.20;;;;;;;13.54;54.61;100215.22;31472792;28;19924;-79
2022/09/11 03:39:10;;;;;;;3.10;1.67;;;;;;;13.63;54.19;100192.75;31473200;28;20075;-78
2022/09/11 03:54:14;;;;;;;3.30;1.27;;;;;;;13.68;54.00;100178.59;31470760;28;20063;-77
2022/09/11 04:09:16;;;;;;;1.80;1.00;;;;;;;13.67;54.00;100155.22;31488143;28;20059;-76
2022/09/11 04:24:20;;;;;;;2.90;1.23;;;;;;;13.68;53.92;100156.75;31492430;28;20053;-77
2022/09/11 04:39:22;;;;;;;3.40;1.10;;;;;;;13.65;54.20;100163.09;31478528;28;20139;-76
2022/09/11 04:54:24;;;;;;;3.33;1.10;;;;;;;13.73;53.77;100164.38;31486517;28;20075;-77
2022/09/11 05:09:26;;;;;;;9.30;1.47;;;;;;;13.80;53.66;100169.59;31487549;28;20090;-79
2022/09/11 05:24:28;;;;;;;4.93;1.63;;;;;;;13.90;53.75;100152.16;31476390;28;20071;-78
2022/09/11 05:39:30;;;;;;;2.53;1.33;;;;;;;14.06;53.59;100151.22;31469512;28;20052;-78
2022/09/11 05:54:32;;;;;;;1.77;1.40;;;;;;;14.34;53.36;100109.31;31480520;28;20059;-78
2022/09/11 06:09:34;;;;;;;3.63;1.67;;;;;;;14.68;52.96;100097.56;31464807;28;20537;-77
2022/09/11 06:24:36;;;;;;;3.73;1.27;;;;;;;14.81;52.45;100074.88;31473202;28;20056;-77
2022/09/11 06:39:38;;;;;;;4.60;1.43;;;;;;;14.88;53.13;100080.84;31467349;28;20525;-78
2022/09/11 06:54:40;;;;;;;11.60;1.50;;;;;;;14.97;53.17;100077.41;31479364;28;20170;-81
2022/09/11 07:09:42;;;;;;;3.63;1.40;;;;;;;15.12;53.46;100083.81;31469006;28;20053;-77
2022/09/11 07:24:46;;;;;;;2.00;1.27;;;;;;;15.42;54.25;100081.50;31471191;28;20106;-81
2022/09/11 07:39:47;;;;;;;3.30;1.47;;;;;;;15.74;54.12;100056.38;31457406;28;20057;-78
2022/09/11 07:54:50;;;;;;;3.60;1.40;;;;;;;16.10;54.68;100071.28;31499493;28;20049;-78
2022/09/11 08:09:51;;;;;;;1.93;1.20;;;;;;;16.30;54.12;100053.19;31485550;28;20497;-79
2022/09/11 08:25:14;;;;;;;4.17;1.70;;;;;;;16.40;53.94;100040.25;31483862;28;20048;-74
2022/09/11 08:40:16;;;;;;;3.63;1.40;;;;;;;16.64;54.28;100027.44;31505420;28;20118;-75
2022/09/11 08:55:34;;;;;;;6.10;1.30;;;;;;;16.46;58.78;100019.22;31485071;28;20052;-74
2022/09/11 09:10:50;;;;;;;3.10;1.80;;;;;;;16.38;66.58;100004.31;31468179;28;20056;-73
2022/09/11 09:25:56;;;;;;;2.10;1.40;;;;;;;16.40;72.21;99988.19;31477226;28;20052;-73
2022/09/11 09:56:24;;;;;;;2.28;1.50;;;;;;;17.20;71.16;99951.94;31303418;28;20405;-73
2022/09/11 10:11:29;;;;;;;8.07;2.20;;;;;;;17.56;65.37;99914.47;31291972;28;20093;-73
2022/09/11 10:26:31;;;;;;;7.38;2.03;;;;;;;17.95;64.73;99909.72;31248661;28;20060;-75
2022/09/11 10:41:35;;;;;;;5.03;2.33;;;;;;;18.54;61.19;99880.16;31267775;28;20049;-74
2022/09/11 10:56:46;;;;;;;4.87;2.30;;;;;;;19.07;59.38;99852.41;31255416;28;20049;-74
2022/09/11 11:12:05;;;;;;;6.35;2.60;;;;;;;19.16;53.29;99854.25;31196569;28;20443;-74
2022/09/11 11:27:50;;;;;;;4.25;2.38;;;;;;;20.33;49.01;99846.31;31143941;28;20493;-75
2022/09/11 11:43:00;;;;;;;3.95;1.90;;;;;;;22.00;43.32;99835.84;31126984;28;20554;-76
2022/09/11 11:58:03;;;;;;;8.25;1.90;;;;;;;20.96;44.50;99835.13;31172402;28;20054;-75
2022/09/11 12:13:11;;;;;;;3.77;1.53;;;;;;;21.50;42.98;99844.06;31184913;28;20051;-74
2022/09/11 12:28:24;;;;;;;3.45;1.60;;;;;;;21.63;42.61;99829.81;31192851;28;20106;-74
2022/09/11 12:43:53;;;;;;;2.70;1.87;;;;;;;21.27;42.65;99810.16;31197975;28;20062;-74
2022/09/11 12:59:25;;;;;;;4.45;2.45;;;;;;;21.32;42.50;99784.56;31188011;28;20061;-76
2022/09/11 13:14:27;;;;;;;5.50;2.60;;;;;;;21.17;44.87;99781.25;31171838;28;20123;-75
2022/09/11 13:29:32;;;;;;;3.55;2.53;;;;;;;20.61;47.60;99783.06;31166329;28;20050;-76
2022/09/11 13:44:43;;;;;;;5.75;2.70;;;;;;;20.24;48.96;99772.09;31151175;28;20501;-76
2022/09/11 13:59:47;;;;;;;4.38;2.28;;;;;;;20.20;49.41;99779.84;31142259;28;20061;-78
2022/09/11 14:14:53;;;;;;;4.63;2.70;;;;;;;20.08;50.06;99768.72;31164588;28;20046;-77
2022/09/11 14:29:56;;;;;;;6.82;2.40;;;;;;;19.94;50.37;99793.69;31166751;28;20061;-74
2022/09/11 14:44:58;;;;;;;5.72;2.17;;;;;;;19.61;50.74;99766.63;31162161;28;20092;-77
2022/09/11 15:00:00;;;;;;;4.05;2.05;;;;;;;19.35;50.77;99733.63;31135594;28;20417;-73
2022/09/11 15:15:03;;;;;;;3.15;1.83;;;;;;;19.16;50.14;99733.19;31162824;28;20421;-79
2022/09/11 15:30:05;;;;;;;5.60;2.17;;;;;;;18.96;50.84;99724.97;31114289;28;20100;-78
2022/09/11 15:45:08;;;;;;;5.95;2.80;;;;;;;18.70;51.55;99719.44;31099304;28;20414;-78
2022/09/11 16:00:11;;;;;;;7.03;2.55;;;;;;;18.48;52.36;99703.44;31118596;28;20041;-81
2022/09/11 16:15:13;;;;;;;4.85;3.03;;;;;;;18.26;52.96;99705.91;31149759;28;20141;-78
2022/09/11 16:30:15;;;;;;;6.43;2.95;;;;;;;18.09;53.66;99722.16;31176707;28;20452;-78
2022/09/11 16:45:38;;;;;;;8.52;3.13;;;;;;;17.96;54.23;99719.72;31182974;28;20050;-78
2022/09/11 17:00:41;;;;;;;6.13;3.60;;;;;;;17.85;55.43;99718.84;31151535;28;20145;-83
2022/09/11 17:15:44;;;;;;;10.77;3.67;;;;;;;17.75;56.07;99720.91;31148078;28;20421;-81
2022/09/11 17:30:46;;;;;;;8.38;2.90;;;;;;;17.65;56.67;99694.84;31173125;28;20481;-79
2022/09/11 17:45:51;;;;;;;7.60;2.80;;;;;;;17.60;56.92;99693.47;31165277;28;20065;-80
2022/09/11 18:00:53;;;;;;;4.95;2.53;;;;;;;17.60;57.19;99685.25;31195597;28;20106;-79
2022/09/11 18:15:55;;;;;;;11.10;3.03;;;;;;;17.56;57.84;99692.16;31198353;28;20057;-78
2022/09/11 18:31:02;;;;;;;8.82;3.30;;;;;;;17.61;58.64;99683.25;31133109;28;20050;-82
2022/09/11 18:46:04;;;;;;;4.07;2.47;;;;;;;17.55;58.87;99663.19;31113310;28;20057;-76
2022/09/11 19:01:12;;;;;;;6.85;3.40;;;;;;;17.45;59.80;99648.09;31131780;28;20047;-75
2022/09/11 19:16:16;;;;;;;6.13;2.78;;;;;;;17.38;60.56;99650.00;31129114;28;20081;-74
2022/09/11 19:31:20;;;;;;;15.68;5.00;;;;;;;17.04;62.49;99624.00;31163081;28;20054;-75
2022/09/11 19:46:25;;;;;;;15.87;6.67;;;;;;;16.92;64.24;99602.38;31104295;28;20062;-74
2022/09/11 20:01:29;;;;;;;11.98;6.13;;;;;;;16.79;64.26;99577.22;31107370;28;20104;-74
2022/09/11 20:16:31;;;;;;;17.23;6.45;;;;;;;16.63;64.26;99576.47;31081166;28;20085;-74
2022/09/11 20:31:38;;;;;;;8.18;3.20;;;;;;;16.85;63.98;99569.84;31111401;28;20085;-74
2022/09/11 20:46:48;;;;;;;8.53;3.43;;;;;;;17.00;63.34;99554.16;31070717;28;20154;-72
2022/09/11 21:01:50;;;;;;;4.72;2.75;;;;;;;17.03;63.32;99564.16;31088105;28;20258;-74
2022/09/11 21:16:52;;;;;;;5.85;3.00;;;;;;;16.96;63.93;99561.81;31129253;28;20056;-72
2022/09/11 21:31:54;;;;;;;5.50;4.07;;;;;;;16.75;65.23;99543.78;31108336;28;20156;-73
2022/09/11 21:46:55;;;;;;;7.05;4.30;;;;;;;16.20;68.10;99530.59;31081288;28;20054;-73
2022/09/11 22:01:57;;;;;;;19.60;8.40;;;;;;;16.01;69.18;99536.25;31097011;28;20502;-73
2022/09/11 22:16:59;;;;;;;10.23;4.32;;;;;;;15.88;70.75;99516.56;31114779;28;20057;-74
2022/09/11 22:32:02;;;;;;;7.88;4.88;;;;;;;15.60;71.52;99515.25;31158435;28;20136;-72
2022/09/11 22:47:04;;;;;;;11.63;5.50;;;;;;;15.76;70.87;99505.88;31111227;28;20058;-73
2022/09/11 23:02:06;;;;;;;8.05;4.88;;;;;;;15.63;71.92;99487.72;31147432;28;20056;-73
2022/09/11 23:17:08;;;;;;;10.82;5.07;;;;;;;15.71;71.48;99477.19;31099350;28;20053;-72
2022/09/11 23:32:10;;;;;;;38.03;16.53;;;;;;;15.75;71.77;99479.72;31125273;28;20077;-73
2022/09/11 23:47:12;;;;;;;9.63;3.80;;;;;;;15.90;71.47;99483.25;31117624;28;20066;-74
